Time;durP1;ratioP1;P1;durP2;ratioP2;P2;SDS_P1;SDS_P2;PMS_P1;PMS_P2;Temp;Humidity;BMP_temperature;BMP_pressure;BME280_temperature;BME280_humidity;BME280_pressure;Samples;Min_cycle;Max_cycle;Signal;HPM_P1;HPM_P2
2022/05/19 00:01:07;;;;;;;20.65;17.77;;;15.50;99.90;;;;;;5032635;28;20052;-79
2022/05/19 00:03:37;;;;;;;19.02;16.92;;;15.40;99.90;;;;;;5050461;28;20036;-78
2022/05/19 00:06:06;;;;;;;18.75;16.65;;;15.50;99.90;;;;;;5046171;28;20051;-78
2022/05/19 00:08:31;;;;;;;17.95;16.02;;;15.60;99.90;;;;;;5035237;28;20041;-79
2022/05/19 00:11:00;;;;;;;21.30;17.13;;;15.60;99.90;;;;;;5000227;28;20464;-79
2022/05/19 00:13:27;;;;;;;22.33;18.02;;;15.70;99.90;;;;;;5010700;28;20033;-79
2022/05/19 00:15:53;;;;;;;19.08;17.17;;;15.70;99.90;;;;;;5028934;28;20049;-78
2022/05/19 00:18:18;;;;;;;21.88;18.92;;;15.70;99.90;;;;;;5029003;28;20368;-79
2022/05/19 00:20:44;;;;;;;23.33;20.90;;;15.80;99.90;;;;;;5027174;28;20041;-79
2022/05/19 00:23:10;;;;;;;20.85;18.58;;;15.70;99.90;;;;;;5027213;28;20057;-79
2022/05/19 00:25:36;;;;;;;27.65;22.98;;;15.80;99.90;;;;;;5029264;28;20096;-79
2022/05/19 00:28:02;;;;;;;26.55;23.85;;;15.70;99.90;;;;;;5026973;28;20038;-79
2022/05/19 00:30:27;;;;;;;25.42;22.73;;;15.60;99.90;;;;;;5009692;28;20037;-79
2022/05/19 00:32:53;;;;;;;24.92;21.85;;;15.60;99.90;;;;;;5029085;28;20132;-79
2022/05/19 00:35:18;;;;;;;27.60;22.35;;;15.60;99.90;;;;;;5025106;28;20483;-79
2022/05/19 00:37:44;;;;;;;29.30;26.02;;;15.60;99.90;;;;;;5010398;28;20057;-79
2022/05/19 00:40:12;;;;;;;32.28;26.60;;;15.60;99.90;;;;;;5025894;28;20049;-79
2022/05/19 00:42:43;;;;;;;29.92;26.70;;;15.40;99.90;;;;;;5011656;28;20144;-79
2022/05/19 00:45:10;;;;;;;28.40;25.50;;;15.40;99.90;;;;;;5014914;28;20096;-79
2022/05/19 00:47:52;;;;;;;29.20;25.30;;;15.40;99.90;;;;;;5027957;28;20041;-79
2022/05/19 00:50:45;;;;;;;27.15;24.38;;;15.40;99.90;;;;;;5045061;28;20088;-79
2022/05/19 00:53:22;;;;;;;25.30;22.55;;;15.50;99.90;;;;;;5028745;28;20464;-79
2022/05/19 00:55:50;;;;;;;30.50;27.50;;;15.50;99.90;;;;;;5009239;28;20049;-79
2022/05/19 00:58:26;;;;;;;32.47;28.33;;;15.50;99.90;;;;;;5004111;28;20037;-80
2022/05/19 01:00:54;;;;;;;33.40;28.80;;;15.50;99.90;;;;;;5024697;28;20125;-79
2022/05/19 01:03:20;;;;;;;31.10;27.15;;;15.40;99.90;;;;;;5024082;28;20050;-79
2022/05/19 01:06:03;;;;;;;30.58;27.10;;;15.40;99.90;;;;;;5027640;28;20379;-79
2022/05/19 01:08:38;;;;;;;29.73;26.55;;;15.30;99.90;;;;;;5031556;28;20061;-79
2022/05/19 01:11:06;;;;;;;32.20;27.98;;;15.30;99.90;;;;;;5047382;28;20545;-79
2022/05/19 01:13:34;;;;;;;38.63;31.52;;;15.30;99.90;;;;;;5040604;28;20093;-80
2022/05/19 01:16:00;;;;;;;36.05;32.25;;;15.30;99.90;;;;;;5046659;28;20048;-79
2022/05/19 01:18:28;;;;;;;39.00;34.85;;;15.40;99.90;;;;;;5046426;28;20382;-80
2022/05/19 01:20:55;;;;;;;44.60;39.30;;;15.40;99.90;;;;;;5034227;28;20045;-80
2022/05/19 01:23:42;;;;;;;41.08;36.67;;;15.40;99.90;;;;;;5042888;28;20554;-80
2022/05/19 01:26:20;;;;;;;41.90;37.42;;;15.50;99.90;;;;;;5043371;28;20055;-80
2022/05/19 01:28:46;;;;;;;42.85;38.25;;;15.50;99.90;;;;;;5045778;28;20045;-80
2022/05/19 01:31:36;;;;;;;44.53;39.80;;;15.60;99.90;;;;;;5045143;28;20037;-80
2022/05/19 01:34:04;;;;;;;50.83;45.22;;;15.60;99.90;;;;;;5047170;28;20046;-80
2022/05/19 01:36:30;;;;;;;58.38;48.60;;;15.60;99.90;;;;;;5048276;28;21350;-79
2022/05/19 01:39:08;;;;;;;54.13;48.28;;;15.60;99.90;;;;;;5035323;28;20044;-79
2022/05/19 01:41:37;;;;;;;58.28;47.88;;;15.50;99.90;;;;;;5052072;28;20041;-80
2022/05/19 01:44:43;;;;;;;59.17;50.55;;;15.50;99.90;;;;;;5047011;28;20044;-80
2022/05/19 01:47:18;;;;;;;58.47;51.38;;;15.40;99.90;;;;;;5030387;28;20056;-79
2022/05/19 01:50:16;;;;;;;61.88;52.90;;;15.30;99.90;;;;;;5051782;28;20037;-80
2022/05/19 01:52:49;;;;;;;64.22;55.45;;;15.30;99.90;;;;;;5050208;28;20040;-80
2022/05/19 01:55:25;;;;;;;60.75;54.22;;;15.30;99.90;;;;;;5046949;28;20040;-80
2022/05/19 01:58:01;;;;;;;58.42;52.28;;;15.30;99.90;;;;;;5051552;28;20091;-79
2022/05/19 02:00:29;;;;;;;58.67;52.38;;;15.40;99.90;;;;;;5042909;28;20045;-80
2022/05/19 02:03:04;;;;;;;64.70;54.80;;;15.30;99.90;;;;;;5048669;28;20119;-80
2022/05/19 02:05:51;;;;;;;61.65;55.05;;;15.30;99.90;;;;;;5050048;28;20028;-80
2022/05/19 02:08:38;;;;;;;59.05;52.65;;;15.40;99.90;;;;;;5037497;28;20062;-79
2022/05/19 02:11:09;;;;;;;59.15;52.47;;;15.40;99.90;;;;;;5029032;28;20052;-79
2022/05/19 02:13:35;;;;;;;61.85;55.25;;;15.40;99.90;;;;;;5028698;28;20499;-80
2022/05/19 02:16:04;;;;;;;65.85;57.08;;;15.40;99.90;;;;;;5035311;28;20042;-79
2022/05/19 02:18:30;;;;;;;68.03;58.63;;;15.30;99.90;;;;;;5036481;28;20128;-79
2022/05/19 02:20:59;;;;;;;61.42;54.85;;;15.30;99.90;;;;;;5038492;28;20536;-80
2022/05/19 02:23:26;;;;;;;61.83;55.17;;;15.30;99.90;;;;;;5032753;28;20521;-80
2022/05/19 02:25:53;;;;;;;61.60;54.85;;;15.40;99.90;;;;;;5028425;28;20052;-80
2022/05/19 02:28:32;;;;;;;58.28;52.10;;;15.40;99.90;;;;;;5041611;28;20048;-79
2022/05/19 02:30:59;;;;;;;69.20;60.22;;;15.40;99.90;;;;;;5022614;28;20048;-79
2022/05/19 02:33:25;;;;;;;63.05;56.25;;;15.40;99.90;;;;;;5029902;28;20041;-80
2022/05/19 02:35:51;;;;;;;63.20;56.35;;;15.40;99.90;;;;;;5030925;28;20076;-79
2022/05/19 02:38:18;;;;;;;64.25;56.75;;;15.40;99.90;;;;;;5025143;28;20095;-80
2022/05/19 02:40:45;;;;;;;66.63;57.95;;;15.40;99.90;;;;;;5019716;28;20034;-80
2022/05/19 02:43:11;;;;;;;65.43;58.00;;;15.40;99.90;;;;;;5027688;28;20047;-80
2022/05/19 02:45:37;;;;;;;65.97;58.75;;;15.40;99.90;;;;;;5012888;28;20071;-79
2022/05/19 02:48:05;;;;;;;64.50;57.40;;;15.50;99.90;;;;;;5020195;28;20121;-79
2022/05/19 02:50:31;;;;;;;66.25;58.33;;;15.50;99.90;;;;;;5018983;28;20052;-79
2022/05/19 02:52:57;;;;;;;65.40;58.63;;;15.50;99.90;;;;;;5027755;28;20112;-79
2022/05/19 02:55:23;;;;;;;71.95;64.18;;;15.50;99.90;;;;;;5040556;28;20091;-79
2022/05/19 02:57:50;;;;;;;71.88;64.18;;;15.50;99.90;;;;;;5033195;28;20467;-79
2022/05/19 03:00:20;;;;;;;72.57;64.68;;;15.50;99.90;;;;;;5015551;28;20041;-79
2022/05/19 03:02:46;;;;;;;71.90;64.30;;;15.50;99.90;;;;;;5012388;28;20076;-79
2022/05/19 03:05:19;;;;;;;70.70;63.15;;;15.50;99.90;;;;;;5034340;28;20052;-79
2022/05/19 03:07:44;;;;;;;67.28;59.83;;;15.50;99.90;;;;;;5040819;28;20048;-79
2022/05/19 03:10:10;;;;;;;64.25;57.40;;;15.50;99.90;;;;;;5035189;28;20487;-79
2022/05/19 03:12:36;;;;;;;71.50;62.80;;;15.50;99.90;;;;;;5030889;28;20138;-79
2022/05/19 03:15:04;;;;;;;72.43;64.82;;;15.60;99.90;;;;;;5022129;28;20046;-79
2022/05/19 03:17:30;;;;;;;74.65;66.50;;;15.60;99.90;;;;;;5036927;28;20048;-79
2022/05/19 03:19:56;;;;;;;76.30;67.88;;;15.60;99.90;;;;;;5028968;28;20048;-79
2022/05/19 03:22:22;;;;;;;73.65;65.80;;;15.60;99.90;;;;;;5060706;28;20490;-79
2022/05/19 03:24:48;;;;;;;73.43;65.78;;;15.50;99.90;;;;;;5043409;28;20096;-79
2022/05/19 03:27:14;;;;;;;70.30;62.97;;;15.50;99.90;;;;;;5019768;28;20470;-78
2022/05/19 03:29:39;;;;;;;74.25;65.78;;;15.50;99.90;;;;;;5014887;28;20042;-79
2022/05/19 03:32:06;;;;;;;72.18;64.53;;;15.50;99.90;;;;;;5017732;28;20041;-79
2022/05/19 03:34:31;;;;;;;68.82;61.58;;;15.50;99.90;;;;;;5038605;28;20493;-79
2022/05/19 03:36:57;;;;;;;64.85;58.33;;;15.50;99.90;;;;;;5023368;28;20040;-79
2022/05/19 03:39:22;;;;;;;65.53;58.72;;;15.50;99.90;;;;;;5031492;28;20159;-79
2022/05/19 03:41:48;;;;;;;68.65;61.15;;;15.50;99.90;;;;;;5030786;28;20057;-79
2022/05/19 03:44:14;;;;;;;70.72;62.25;;;15.60;99.90;;;;;;5022836;28;20491;-79
2022/05/19 03:46:39;;;;;;;69.97;62.38;;;15.60;99.90;;;;;;5027253;28;20117;-79
2022/05/19 03:49:05;;;;;;;67.55;60.17;;;15.60;99.90;;;;;;5023753;28;20034;-79
2022/05/19 03:51:32;;;;;;;70.05;62.42;;;15.60;99.90;;;;;;5025531;28;20130;-79
2022/05/19 03:53:58;;;;;;;66.50;59.35;;;15.60;99.90;;;;;;5033659;28;20048;-79
2022/05/19 03:56:25;;;;;;;67.20;60.13;;;15.60;99.90;;;;;;5031512;28;20514;-79
2022/05/19 03:58:50;;;;;;;65.70;58.50;;;15.60;99.90;;;;;;5034483;28;20483;-80
2022/05/19 04:01:17;;;;;;;67.55;60.47;;;15.60;99.90;;;;;;5034090;28;20042;-79
2022/05/19 04:03:43;;;;;;;69.05;61.53;;;15.60;99.90;;;;;;5027914;28;20045;-80
2022/05/19 04:06:09;;;;;;;65.32;58.33;;;15.70;99.90;;;;;;5034745;28;20040;-79
2022/05/19 04:08:35;;;;;;;68.55;60.97;;;15.70;99.90;;;;;;5040938;28;20045;-79
2022/05/19 04:11:01;;;;;;;66.82;59.50;;;15.70;99.90;;;;;;5048022;28;20043;-79
2022/05/19 04:13:26;;;;;;;64.82;57.72;;;15.80;99.90;;;;;;5048576;28;20033;-79
2022/05/19 04:15:52;;;;;;;65.72;58.88;;;15.80;99.90;;;;;;5049634;28;20131;-79
2022/05/19 04:18:18;;;;;;;63.90;57.17;;;15.90;99.90;;;;;;5048957;28;20049;-79
2022/05/19 04:20:44;;;;;;;63.65;56.78;;;15.90;99.90;;;;;;5049843;28;20124;-79
2022/05/19 04:23:10;;;;;;;63.83;56.88;;;16.00;99.90;;;;;;5050018;28;20097;-79
2022/05/19 04:25:37;;;;;;;62.72;56.13;;;16.00;99.90;;;;;;5048700;28;20455;-79
2022/05/19 04:28:03;;;;;;;69.22;61.58;;;16.10;99.90;;;;;;5033126;28;20727;-79
2022/05/19 04:30:29;;;;;;;66.95;59.25;;;16.10;99.90;;;;;;5043249;28;20037;-79
2022/05/19 04:32:55;;;;;;;68.72;60.45;;;16.10;99.90;;;;;;5048446;28;20045;-79
2022/05/19 04:35:21;;;;;;;72.50;59.70;;;16.20;99.90;;;;;;5049908;28;20045;-77
2022/05/19 04:37:47;;;;;;;64.60;55.47;;;16.20;99.90;;;;;;5043527;28;20034;-79
2022/05/19 04:40:14;;;;;;;77.88;59.83;;;16.30;99.90;;;;;;5049612;28;20420;-77
2022/05/19 04:42:40;;;;;;;68.55;61.15;;;16.40;99.90;;;;;;5032571;28;20539;-79
2022/05/19 04:45:08;;;;;;;65.68;58.50;;;16.50;99.90;;;;;;5049899;28;20483;-81
2022/05/19 04:47:34;;;;;;;56.80;49.53;;;16.60;99.90;;;;;;5045464;28;20063;-79
2022/05/19 04:49:59;;;;;;;66.25;59.17;;;16.80;99.90;;;;;;5050257;28;20036;-80
2022/05/19 04:52:25;;;;;;;64.20;57.30;;;16.90;99.90;;;;;;5049712;28;20037;-80
2022/05/19 04:54:51;;;;;;;61.35;54.83;;;17.00;99.90;;;;;;5047233;28;20041;-79
2022/05/19 04:57:17;;;;;;;63.80;57.08;;;17.10;99.90;;;;;;5049619;28;20037;-80
2022/05/19 04:59:43;;;;;;;61.45;54.97;;;17.30;99.90;;;;;;5049574;28;20048;-80
2022/05/19 05:02:10;;;;;;;64.15;57.40;;;17.30;99.90;;;;;;5050064;28;20446;-80
2022/05/19 05:04:36;;;;;;;64.82;56.53;;;17.40;99.90;;;;;;5047662;28;20734;-79
2022/05/19 05:07:02;;;;;;;63.42;56.47;;;17.40;99.90;;;;;;5049461;28;20037;-79
2022/05/19 05:09:28;;;;;;;56.00;50.17;;;17.40;99.90;;;;;;5049407;28;20529;-79
2022/05/19 05:11:54;;;;;;;59.88;53.33;;;17.40;99.90;;;;;;5040230;28;20045;-78
2022/05/19 05:14:20;;;;;;;60.90;54.15;;;17.50;99.90;;;;;;5052963;28;20040;-78
2022/05/19 05:16:48;;;;;;;56.35;50.55;;;17.50;99.90;;;;;;5051732;28;20033;-78
2022/05/19 05:19:14;;;;;;;57.17;51.03;;;17.60;99.90;;;;;;5053894;28;20084;-78
2022/05/19 05:21:39;;;;;;;55.85;49.95;;;17.70;99.90;;;;;;5029086;28;21323;-79
2022/05/19 05:24:05;;;;;;;56.95;48.65;;;17.80;99.90;;;;;;5052617;28;20068;-78
2022/05/19 05:26:31;;;;;;;53.33;47.92;;;18.00;99.90;;;;;;5035305;28;20052;-80
2022/05/19 05:28:56;;;;;;;53.38;47.95;;;18.10;99.90;;;;;;5033741;28;20087;-80
2022/05/19 05:31:22;;;;;;;51.72;46.25;;;18.40;99.90;;;;;;5049431;28;20086;-77
2022/05/19 05:33:48;;;;;;;53.95;45.28;;;18.50;99.90;;;;;;5052240;28;20037;-78
2022/05/19 05:36:13;;;;;;;48.25;43.20;;;18.80;99.90;;;;;;5054156;28;20091;-77
2022/05/19 05:38:39;;;;;;;48.45;43.50;;;18.90;99.90;;;;;;5053831;28;20037;-78
2022/05/19 05:41:04;;;;;;;47.95;42.97;;;19.00;99.90;;;;;;5052683;28;20049;-77
2022/05/19 05:43:30;;;;;;;44.28;39.60;;;19.00;99.90;;;;;;5052725;28;20060;-77
2022/05/19 05:46:06;;;;;;;42.85;38.53;;;19.10;99.90;;;;;;5058589;28;20055;-77
2022/05/19 05:48:36;;;;;;;39.53;35.47;;;19.30;99.90;;;;;;5055089;28;20041;-78
2022/05/19 05:51:02;;;;;;;35.85;32.25;;;19.50;99.90;;;;;;5052231;28;20037;-77
2022/05/19 05:53:28;;;;;;;32.72;29.67;;;20.00;99.90;;;;;;5052706;28;20427;-77
2022/05/19 05:55:53;;;;;;;29.92;27.10;;;20.60;99.90;;;;;;5052391;28;20083;-77
2022/05/19 05:58:19;;;;;;;30.65;27.45;;;21.30;99.90;;;;;;5044154;28;20084;-77
2022/05/19 06:00:44;;;;;;;30.02;27.02;;;21.70;99.90;;;;;;5050396;28;20048;-77
2022/05/19 06:03:10;;;;;;;29.83;26.90;;;22.40;99.90;;;;;;5052126;28;20041;-77
2022/05/19 06:05:35;;;;;;;28.20;25.50;;;22.70;99.90;;;;;;5047715;28;20029;-77
2022/05/19 06:08:01;;;;;;;25.95;23.27;;;22.80;99.90;;;;;;5044744;28;20580;-77
2022/05/19 06:10:26;;;;;;;23.48;21.17;;;23.40;99.90;;;;;;5032101;28;20107;-78
2022/05/19 06:12:53;;;;;;;42.83;18.13;;;23.90;99.60;;;;;;5031934;28;20237;-77
2022/05/19 06:15:19;;;;;;;21.25;18.88;;;24.10;97.10;;;;;;5014133;28;20045;-77
2022/05/19 06:17:44;;;;;;;22.85;17.67;;;24.20;97.00;;;;;;5048932;28;20053;-78
2022/05/19 06:20:14;;;;;;;19.42;17.23;;;24.50;97.60;;;;;;5034892;28;20053;-78
2022/05/19 06:22:41;;;;;;;18.42;16.65;;;24.90;96.90;;;;;;5040295;22;20420;-78
2022/05/19 06:25:07;;;;;;;19.67;17.77;;;24.90;97.30;;;;;;5039229;28;20371;-78
2022/05/19 06:27:33;;;;;;;19.90;17.80;;;24.50;96.80;;;;;;5063498;28;20102;-78
2022/05/19 06:29:58;;;;;;;20.13;18.23;;;24.10;97.20;;;;;;5058525;28;20532;-78
2022/05/19 06:32:24;;;;;;;19.55;17.70;;;23.80;99.30;;;;;;5064213;28;20045;-78
2022/05/19 06:34:50;;;;;;;19.35;17.23;;;24.00;99.80;;;;;;5050948;28;20363;-77
2022/05/19 06:37:15;;;;;;;17.73;16.02;;;24.00;99.30;;;;;;5063043;28;20072;-78
2022/05/19 06:39:41;;;;;;;18.05;15.75;;;24.10;99.20;;;;;;5052739;28;20392;-78
2022/05/19 06:42:14;;;;;;;17.33;15.38;;;24.10;98.40;;;;;;5045966;28;20531;-78
2022/05/19 06:44:41;;;;;;;17.75;16.02;;;24.20;98.00;;;;;;5040554;28;20110;-78
2022/05/19 06:47:13;;;;;;;16.83;15.10;;;24.70;97.90;;;;;;5043088;28;20076;-78
2022/05/19 06:49:51;;;;;;;18.10;15.18;;;25.70;97.20;;;;;;5066974;28;20036;-78
2022/05/19 06:52:44;;;;;;;18.80;14.90;;;25.70;95.60;;;;;;5064360;28;20040;-78
2022/05/19 06:55:10;;;;;;;16.23;14.63;;;25.50;95.80;;;;;;5054630;28;20048;-78
2022/05/19 06:57:36;;;;;;;17.35;15.63;;;25.10;96.40;;;;;;5032545;28;20048;-78
2022/05/19 07:00:04;;;;;;;16.77;15.18;;;24.80;96.80;;;;;;5049846;28;20048;-78
2022/05/19 07:02:29;;;;;;;24.00;16.15;;;24.50;96.50;;;;;;5067506;28;20048;-78
2022/05/19 07:04:55;;;;;;;16.63;14.93;;;24.20;96.90;;;;;;5046316;28;20371;-78
2022/05/19 07:07:21;;;;;;;16.90;15.13;;;23.80;97.50;;;;;;5041296;28;20099;-78
2022/05/19 07:09:46;;;;;;;18.10;16.08;;;23.50;98.60;;;;;;5054359;28;20111;-78
2022/05/19 07:12:20;;;;;;;18.15;16.45;;;23.30;99.30;;;;;;5048059;28;20430;-78
2022/05/19 07:14:45;;;;;;;17.95;16.27;;;23.00;99.90;;;;;;5052872;28;20509;-78
2022/05/19 07:17:11;;;;;;;17.90;16.10;;;22.70;99.90;;;;;;5071146;28;20079;-78
2022/05/19 07:22:22;;;;;;;20.10;18.08;;;22.30;99.90;;;;;;5079687;28;20053;-78
2022/05/19 07:24:48;;;;;;;18.33;16.55;;;22.00;99.90;;;;;;5073846;28;20059;-78
2022/05/19 07:27:14;;;;;;;19.85;17.75;;;21.90;99.90;;;;;;5068952;28;20097;-77
2022/05/19 07:29:41;;;;;;;20.00;18.00;;;21.70;99.90;;;;;;5062186;28;20043;-78
2022/05/19 07:32:08;;;;;;;21.98;19.45;;;21.60;99.90;;;;;;5050340;28;20474;-77
2022/05/19 07:34:36;;;;;;;21.27;19.08;;;21.50;99.90;;;;;;5073806;28;20422;-78
2022/05/19 07:37:02;;;;;;;22.70;20.27;;;21.30;99.90;;;;;;5071897;28;20048;-78
2022/05/19 07:39:28;;;;;;;22.63;20.42;;;21.20;99.90;;;;;;5037171;28;20059;-77
2022/05/19 07:41:55;;;;;;;20.00;18.20;;;21.10;99.90;;;;;;5052809;28;20036;-78
2022/05/19 07:44:23;;;;;;;22.73;20.60;;;21.10;99.90;;;;;;5044367;28;20058;-77
2022/05/19 07:46:49;;;;;;;22.90;20.58;;;21.00;99.90;;;;;;5056472;28;20650;-78
2022/05/19 07:49:15;;;;;;;22.35;20.20;;;21.00;99.90;;;;;;5054557;28;20040;-77
2022/05/19 07:51:44;;;;;;;26.27;23.73;;;20.90;99.90;;;;;;5056263;28;20104;-78
2022/05/19 07:54:13;;;;;;;25.27;22.67;;;20.80;99.90;;;;;;5065569;28;20032;-78
2022/05/19 07:56:40;;;;;;;26.05;23.60;;;20.70;99.90;;;;;;5051920;28;20051;-78
2022/05/19 07:59:06;;;;;;;26.13;23.52;;;20.40;99.90;;;;;;5052978;28;20036;-78
2022/05/19 08:01:32;;;;;;;29.45;26.65;;;20.30;99.90;;;;;;5054295;28;20035;-78
2022/05/19 08:03:59;;;;;;;29.10;26.15;;;19.90;99.90;;;;;;5056646;28;20086;-79
2022/05/19 08:06:25;;;;;;;28.40;25.60;;;20.00;99.90;;;;;;5044777;28;20401;-78
2022/05/19 08:08:51;;;;;;;29.58;26.67;;;20.10;99.90;;;;;;5052774;28;20119;-77
2022/05/19 08:11:17;;;;;;;28.05;25.27;;;20.10;99.90;;;;;;5055739;28;20123;-77
2022/05/19 08:16:26;;;;;;;24.75;22.33;;;20.40;99.90;;;;;;5047735;28;20048;-76
2022/05/19 08:18:52;;;;;;;29.92;26.88;;;20.50;99.90;;;;;;5051302;28;20032;-77
2022/05/19 08:21:18;;;;;;;27.50;24.27;;;20.50;99.90;;;;;;5050208;28;20044;-77
2022/05/19 08:23:46;;;;;;;24.65;22.30;;;20.50;99.90;;;;;;5049847;28;20053;-77
2022/05/19 08:26:12;;;;;;;27.92;23.92;;;20.50;99.90;;;;;;5044023;28;20518;-77
2022/05/19 08:28:40;;;;;;;25.08;22.70;;;20.60;99.90;;;;;;5064679;28;20041;-77
2022/05/19 08:31:11;;;;;;;24.83;22.35;;;20.70;99.90;;;;;;5043819;28;20033;-77
2022/05/19 08:33:38;;;;;;;24.65;22.10;;;20.70;99.90;;;;;;5045172;28;20083;-77
2022/05/19 08:36:05;;;;;;;23.55;21.25;;;20.60;99.90;;;;;;5059191;28;20041;-77
2022/05/19 08:38:31;;;;;;;21.20;19.08;;;20.60;99.90;;;;;;5042002;28;20041;-77
2022/05/19 08:41:08;;;;;;;17.95;16.25;;;20.70;99.90;;;;;;5049238;28;20085;-76
2022/05/19 08:43:48;;;;;;;18.13;16.35;;;20.40;99.90;;;;;;5057197;28;20032;-77
2022/05/19 08:46:25;;;;;;;18.45;16.75;;;20.40;99.90;;;;;;5045470;28;20056;-78
2022/05/19 08:48:55;;;;;;;22.83;18.77;;;20.40;99.90;;;;;;5040676;28;20052;-78
2022/05/19 08:51:25;;;;;;;20.08;17.88;;;20.50;99.90;;;;;;5048984;28;20033;-79
2022/05/19 08:53:55;;;;;;;21.35;19.25;;;20.40;99.90;;;;;;5053330;28;20051;-78
2022/05/19 08:56:31;;;;;;;22.15;19.73;;;20.60;99.90;;;;;;5057986;28;20393;-78
2022/05/19 08:59:38;;;;;;;24.63;22.08;;;20.80;99.90;;;;;;5046171;28;20650;-78
2022/05/19 09:02:14;;;;;;;28.92;19.88;;;21.00;99.90;;;;;;5015825;28;20505;-77
2022/05/19 09:05:07;;;;;;;22.23;20.13;;;21.20;99.90;;;;;;5051626;28;20045;-78
2022/05/19 09:07:59;;;;;;;20.52;18.63;;;21.30;99.90;;;;;;5044644;28;20474;-78
2022/05/19 09:10:49;;;;;;;20.42;18.48;;;21.50;99.90;;;;;;5068548;28;20048;-78
2022/05/19 09:13:35;;;;;;;19.75;17.75;;;21.70;99.90;;;;;;5041483;28;20075;-78
2022/05/19 09:16:15;;;;;;;19.08;17.17;;;21.90;99.90;;;;;;5047598;28;20045;-77
2022/05/19 09:18:45;;;;;;;16.00;14.50;;;22.00;99.90;;;;;;5065653;28;20060;-78
2022/05/19 09:21:11;;;;;;;15.70;14.47;;;22.10;99.90;;;;;;5039984;28;20052;-78
2022/05/19 09:23:40;;;;;;;16.88;15.38;;;22.30;99.90;;;;;;5051754;28;20640;-78
2022/05/19 09:26:43;;;;;;;16.40;15.00;;;22.30;99.90;;;;;;5056269;28;20045;-78
2022/05/19 09:29:12;;;;;;;13.40;11.68;;;22.30;99.90;;;;;;5040030;28;20094;-78
2022/05/19 09:32:05;;;;;;;16.05;14.43;;;22.30;99.90;;;;;;5049180;28;20048;-78
2022/05/19 09:34:34;;;;;;;15.38;14.00;;;22.40;99.90;;;;;;5033290;28;20042;-78
2022/05/19 09:37:09;;;;;;;19.63;15.82;;;22.40;99.90;;;;;;5049059;28;20040;-78
2022/05/19 09:39:46;;;;;;;16.20;14.63;;;22.50;99.90;;;;;;5031572;28;20044;-78
2022/05/19 09:42:16;;;;;;;16.02;14.43;;;22.60;99.90;;;;;;5047571;28;20072;-78
2022/05/19 09:44:51;;;;;;;16.95;15.15;;;22.70;99.90;;;;;;5052888;28;20106;-78
2022/05/19 09:47:33;;;;;;;15.77;14.38;;;23.00;99.90;;;;;;5048345;28;20032;-78
2022/05/19 09:50:11;;;;;;;14.60;13.18;;;23.20;99.90;;;;;;5060609;28;20037;-79
2022/05/19 09:52:41;;;;;;;17.08;15.48;;;23.40;99.90;;;;;;5045274;28;20048;-78
2022/05/19 09:55:09;;;;;;;16.73;15.25;;;23.30;99.90;;;;;;5057111;28;20047;-78
2022/05/19 09:57:50;;;;;;;17.40;15.80;;;23.00;99.90;;;;;;5069888;28;20082;-78
2022/05/19 10:00:18;;;;;;;15.60;14.17;;;23.10;99.90;;;;;;5072725;28;20128;-78
2022/05/19 10:02:48;;;;;;;14.68;13.35;;;22.90;99.90;;;;;;5063028;28;20302;-78
2022/05/19 10:05:39;;;;;;;15.60;14.10;;;23.10;99.90;;;;;;5070511;28;20091;-78
2022/05/19 10:08:12;;;;;;;15.83;14.17;;;23.40;99.90;;;;;;5025011;28;20481;-78
2022/05/19 10:11:03;;;;;;;14.98;13.40;;;23.40;99.90;;;;;;5031064;28;20044;-78
2022/05/19 10:13:42;;;;;;;14.10;12.82;;;23.70;99.90;;;;;;5043810;28;20033;-78
2022/05/19 10:16:14;;;;;;;15.20;13.80;;;23.80;99.90;;;;;;5022490;28;20037;-78
2022/05/19 10:19:22;;;;;;;15.00;13.70;;;23.70;99.90;;;;;;5062517;28;20041;-78
2022/05/19 10:22:14;;;;;;;15.45;14.05;;;24.00;99.90;;;;;;5053080;28;20529;-78
2022/05/19 10:24:43;;;;;;;;;;;23.90;99.90;;;;;;5048191;28;20052;-78
2022/05/19 10:33:35;;;;;;;14.60;13.20;;;24.20;99.90;;;;;;5051912;28;20045;-78
2022/05/19 10:36:20;;;;;;;15.05;13.75;;;24.10;99.90;;;;;;5037255;28;20045;-78
2022/05/19 10:39:21;;;;;;;17.25;15.80;;;23.80;99.90;;;;;;5044763;28;20048;-78
2022/05/19 10:41:52;;;;;;;18.25;16.45;;;23.60;99.90;;;;;;5048465;28;20055;-78
2022/05/19 10:44:18;;;;;;;18.90;17.13;;;23.50;99.90;;;;;;5028996;28;20117;-78
2022/05/19 10:46:43;;;;;;;20.50;17.67;;;23.50;99.90;;;;;;5060576;28;20072;-78
2022/05/19 10:49:39;;;;;;;18.30;16.73;;;23.40;99.90;;;;;;5051016;28;20389;-79
2022/05/19 10:52:41;;;;;;;20.45;18.45;;;23.40;99.90;;;;;;5022949;28;20075;-78
2022/05/19 10:55:19;;;;;;;19.10;17.17;;;23.30;99.90;;;;;;5028968;28;20041;-79
2022/05/19 10:57:48;;;;;;;20.33;18.52;;;23.40;99.90;;;;;;5028351;28;20136;-79
2022/05/19 11:00:33;;;;;;;19.05;17.25;;;23.60;99.90;;;;;;5044181;28;20745;-78
2022/05/19 11:03:24;;;;;;;17.60;15.93;;;23.80;99.90;;;;;;5060476;28;20071;-79
2022/05/19 11:06:21;;;;;;;19.08;17.27;;;23.90;99.90;;;;;;5030760;28;20033;-78
2022/05/19 11:09:16;;;;;;;19.08;17.23;;;23.90;99.90;;;;;;5043126;28;20073;-78
2022/05/19 11:12:14;;;;;;;18.83;17.00;;;24.00;99.90;;;;;;5037424;28;20041;-78
2022/05/19 11:14:48;;;;;;;17.38;15.77;;;24.00;99.90;;;;;;5040018;28;20152;-78
2022/05/19 11:17:31;;;;;;;18.50;16.65;;;24.10;99.90;;;;;;5042514;28;20037;-78
2022/05/19 11:20:14;;;;;;;18.27;16.42;;;24.60;99.40;;;;;;5037798;28;20052;-78
2022/05/19 11:22:41;;;;;;;15.85;14.35;;;24.90;98.50;;;;;;5048465;28;20102;-78
2022/05/19 11:28:14;;;;;;;20.77;18.83;;;25.00;99.90;;;;;;5045910;28;20067;-78
2022/05/19 11:30:46;;;;;;;19.42;17.73;;;25.00;99.90;;;;;;5026997;28;20294;-78
2022/05/19 11:33:21;;;;;;;16.17;14.63;;;25.00;99.90;;;;;;5045880;28;20041;-78
2022/05/19 11:35:54;;;;;;;16.30;14.82;;;25.30;99.10;;;;;;5046127;28;20528;-78
2022/05/19 11:38:36;;;;;;;17.08;15.38;;;25.40;99.70;;;;;;5045460;28;20052;-78
2022/05/19 11:41:17;;;;;;;19.90;18.05;;;25.70;99.90;;;;;;5048471;28;20067;-78
2022/05/19 11:43:51;;;;;;;17.17;15.68;;;25.50;99.00;;;;;;5040599;28;20127;-78
2022/05/19 11:46:48;;;;;;;17.98;16.27;;;25.60;99.10;;;;;;5045352;28;20055;-78
2022/05/19 11:55:13;;;;;;;;;;;25.40;98.60;;;;;;5049282;28;20076;-78
2022/05/19 11:58:01;;;;;;;15.57;14.05;;;25.50;98.50;;;;;;5053840;28;19923;-78
2022/05/19 12:00:47;;;;;;;14.95;13.57;;;25.60;98.40;;;;;;5039318;28;20036;-78
2022/05/19 12:03:28;;;;;;;12.32;11.13;;;25.80;98.80;;;;;;5064061;28;20051;-78
2022/05/19 12:05:56;;;;;;;10.10;9.18;;;26.00;98.00;;;;;;5046418;28;20610;-78
2022/05/19 12:08:39;;;;;;;9.55;8.65;;;26.10;97.30;;;;;;5061280;28;20055;-78
2022/05/19 12:11:24;;;;;;;12.98;10.13;;;26.30;97.40;;;;;;5040098;28;20033;-79
2022/05/19 12:14:05;;;;;;;10.75;8.38;;;26.50;95.80;;;;;;5047187;28;20041;-78
2022/05/19 12:16:47;;;;;;;10.25;9.25;;;26.60;96.90;;;;;;5028524;28;20029;-80
2022/05/19 12:19:32;;;;;;;9.40;8.45;;;26.50;95.80;;;;;;5051790;28;20470;-79
2022/05/19 12:21:58;;;;;;;9.65;8.65;;;26.60;95.50;;;;;;5054785;28;20049;-80
2022/05/19 12:24:50;;;;;;;9.55;8.75;;;26.60;95.50;;;;;;5056719;28;20072;-80
2022/05/19 12:27:21;;;;;;;8.73;7.93;;;26.70;95.00;;;;;;5020020;28;20395;-79
2022/05/19 12:33:28;;;;;;;7.03;6.32;;;26.80;95.90;;;;;;4996492;28;20041;-79
2022/05/19 12:36:38;;;;;;;7.40;6.40;;;26.80;95.80;;;;;;5043687;28;20049;-79
2022/05/19 12:39:11;;;;;;;5.80;5.20;;;26.70;95.00;;;;;;5007379;28;20419;-77
2022/05/19 12:41:51;;;;;;;8.50;4.82;;;26.60;95.30;;;;;;5025316;28;20136;-76
2022/05/19 12:44:32;;;;;;;6.05;5.22;;;26.50;95.80;;;;;;5047152;28;20041;-77
2022/05/19 12:47:20;;;;;;;14.25;5.72;;;26.40;95.60;;;;;;5043933;28;20045;-77
2022/05/19 12:50:18;;;;;;;7.72;4.85;;;26.30;95.80;;;;;;5061903;28;20092;-77
2022/05/19 12:52:56;;;;;;;6.65;5.43;;;26.10;95.70;;;;;;5001089;28;20067;-77
2022/05/19 12:55:24;;;;;;;10.60;5.53;;;26.00;95.30;;;;;;5052364;28;20123;-77
2022/05/19 12:57:53;;;;;;;13.00;6.18;;;25.80;96.20;;;;;;5048833;28;20079;-77
2022/05/19 13:00:22;;;;;;;5.32;4.50;;;25.60;96.60;;;;;;5028488;28;20564;-79
2022/05/19 13:02:51;;;;;;;13.52;4.75;;;25.50;95.90;;;;;;5066994;28;20041;-78
2022/05/19 13:05:28;;;;;;;13.43;4.80;;;25.40;96.50;;;;;;5051213;28;20068;-78
2022/05/19 13:08:35;;;;;;;16.25;5.35;;;25.20;96.80;;;;;;5045084;28;20124;-78
2022/05/19 13:11:06;;;;;;;5.03;4.20;;;25.00;97.70;;;;;;5031261;28;20049;-77
2022/05/19 13:13:44;;;;;;;10.10;5.15;;;24.80;98.10;;;;;;5043781;28;20127;-78
2022/05/19 13:16:09;;;;;;;8.35;5.05;;;24.60;99.90;;;;;;5047708;28;20371;-77